sensor_id;sensor_type;location;lat;lon;timestamp;temperature;humidity
20750;DHT22;10535;50.664;4.564;2023-06-14T00:00:19;19.10;99.90
20750;DHT22;10535;50.664;4.564;2023-06-14T00:02:45;19.20;99.90
20750;DHT22;10535;50.664;4.564;2023-06-14T00:05:12;19.20;99.90
20750;DHT22;10535;50.664;4.564;2023-06-14T00:07:40;19.10;99.90
20750;DHT22;10535;50.664;4.564;2023-06-14T00:10:14;19.20;99.90
20750;DHT22;10535;50.664;4.564;2023-06-14T00:12:41;19.20;99.90
20750;DHT22;10535;50.664;4.564;2023-06-14T00:15:07;19.20;99.90
20750;DHT22;10535;50.664;4.564;2023-06-14T00:17:35;19.00;99.90
20750;DHT22;10535;50.664;4.564;2023-06-14T00:20:03;18.80;99.90
20750;DHT22;10535;50.664;4.564;2023-06-14T00:22:37;18.70;99.90
20750;DHT22;10535;50.664;4.564;2023-06-14T00:25:04;18.80;99.90
20750;DHT22;10535;50.664;4.564;2023-06-14T00:27:31;18.90;99.90
20750;DHT22;10535;50.664;4.564;2023-06-14T00:29:56;19.00;99.90
20750;DHT22;10535;50.664;4.564;2023-06-14T00:32:23;18.90;99.90
20750;DHT22;10535;50.664;4.564;2023-06-14T00:34:51;18.90;99.90
20750;DHT22;10535;50.664;4.564;2023-06-14T00:37:17;18.80;99.90
20750;DHT22;10535;50.664;4.564;2023-06-14T00:39:44;18.70;99.90
20750;DHT22;10535;50.664;4.564;2023-06-14T00:42:09;18.70;99.90
20750;DHT22;10535;50.664;4.564;2023-06-14T00:44:36;18.70;99.90
20750;DHT22;10535;50.664;4.564;2023-06-14T00:47:02;18.50;99.90
20750;DHT22;10535;50.664;4.564;2023-06-14T00:49:29;18.60;99.90
20750;DHT22;10535;50.664;4.564;2023-06-14T00:51:55;18.50;99.90
20750;DHT22;10535;50.664;4.564;2023-06-14T00:54:21;18.40;99.90
20750;DHT22;10535;50.664;4.564;2023-06-14T00:56:49;18.40;99.90
20750;DHT22;10535;50.664;4.564;2023-06-14T00:59:15;18.30;99.90
20750;DHT22;10535;50.664;4.564;2023-06-14T01:01:41;18.20;99.90
20750;DHT22;10535;50.664;4.564;2023-06-14T01:04:07;18.20;99.90
20750;DHT22;10535;50.664;4.564;2023-06-14T01:13:21;18.20;99.90
20750;DHT22;10535;50.664;4.564;2023-06-14T01:15:50;18.30;99.90
20750;DHT22;10535;50.664;4.564;2023-06-14T01:18:17;18.10;99.90
20750;DHT22;10535;50.664;4.564;2023-06-14T01:20:44;18.00;99.90
20750;DHT22;10535;50.664;4.564;2023-06-14T01:23:11;18.00;99.90
20750;DHT22;10535;50.664;4.564;2023-06-14T01:25:38;18.00;99.90
20750;DHT22;10535;50.664;4.564;2023-06-14T01:28:10;17.90;99.90
20750;DHT22;10535;50.664;4.564;2023-06-14T01:30:42;17.90;99.90
20750;DHT22;10535;50.664;4.564;2023-06-14T01:33:12;18.00;99.90
20750;DHT22;10535;50.664;4.564;2023-06-14T01:35:47;18.20;99.90
20750;DHT22;10535;50.664;4.564;2023-06-14T01:38:14;18.10;99.90
20750;DHT22;10535;50.664;4.564;2023-06-14T01:40:42;18.00;99.90
20750;DHT22;10535;50.664;4.564;2023-06-14T01:43:10;17.90;99.90
20750;DHT22;10535;50.664;4.564;2023-06-14T01:45:36;17.80;99.90
20750;DHT22;10535;50.664;4.564;2023-06-14T01:48:03;17.70;99.90
20750;DHT22;10535;50.664;4.564;2023-06-14T01:50:31;17.60;99.90
20750;DHT22;10535;50.664;4.564;2023-06-14T01:52:58;17.60;99.90
20750;DHT22;10535;50.664;4.564;2023-06-14T01:55:24;17.50;99.90
20750;DHT22;10535;50.664;4.564;2023-06-14T01:57:53;17.50;99.90
20750;DHT22;10535;50.664;4.564;2023-06-14T02:00:41;17.50;99.90
20750;DHT22;10535;50.664;4.564;2023-06-14T02:03:09;17.40;99.90
20750;DHT22;10535;50.664;4.564;2023-06-14T02:05:35;17.20;99.90
20750;DHT22;10535;50.664;4.564;2023-06-14T02:08:02;17.20;99.90
20750;DHT22;10535;50.664;4.564;2023-06-14T02:10:31;17.20;99.90
20750;DHT22;10535;50.664;4.564;2023-06-14T02:12:56;17.10;99.90
20750;DHT22;10535;50.664;4.564;2023-06-14T02:15:23;17.10;99.90
20750;DHT22;10535;50.664;4.564;2023-06-14T02:17:49;17.10;99.90
20750;DHT22;10535;50.664;4.564;2023-06-14T02:20:15;17.00;99.90
20750;DHT22;10535;50.664;4.564;2023-06-14T02:22:45;16.90;99.90
20750;DHT22;10535;50.664;4.564;2023-06-14T02:25:10;17.10;99.90
20750;DHT22;10535;50.664;4.564;2023-06-14T02:27:36;17.20;99.90
20750;DHT22;10535;50.664;4.564;2023-06-14T02:30:02;17.30;99.90
20750;DHT22;10535;50.664;4.564;2023-06-14T02:32:27;17.20;99.90
20750;DHT22;10535;50.664;4.564;2023-06-14T02:34:54;17.10;99.90
20750;DHT22;10535;50.664;4.564;2023-06-14T02:37:20;17.10;99.90
20750;DHT22;10535;50.664;4.564;2023-06-14T02:39:46;17.00;99.90
20750;DHT22;10535;50.664;4.564;2023-06-14T02:42:12;16.90;99.90
20750;DHT22;10535;50.664;4.564;2023-06-14T02:44:37;16.90;99.90
20750;DHT22;10535;50.664;4.564;2023-06-14T02:47:04;16.90;99.90
20750;DHT22;10535;50.664;4.564;2023-06-14T02:49:30;16.80;99.90
20750;DHT22;10535;50.664;4.564;2023-06-14T02:51:56;16.70;99.90
20750;DHT22;10535;50.664;4.564;2023-06-14T02:54:21;16.70;99.90
20750;DHT22;10535;50.664;4.564;2023-06-14T02:56:47;16.80;99.90
20750;DHT22;10535;50.664;4.564;2023-06-14T02:59:12;16.80;99.90
20750;DHT22;10535;50.664;4.564;2023-06-14T03:01:39;16.60;99.90
20750;DHT22;10535;50.664;4.564;2023-06-14T03:04:10;16.50;99.90
20750;DHT22;10535;50.664;4.564;2023-06-14T03:06:35;16.50;99.90
20750;DHT22;10535;50.664;4.564;2023-06-14T03:09:02;16.40;99.90
20750;DHT22;10535;50.664;4.564;2023-06-14T03:11:32;16.40;99.90
20750;DHT22;10535;50.664;4.564;2023-06-14T03:13:58;16.30;99.90
20750;DHT22;10535;50.664;4.564;2023-06-14T03:16:24;16.20;99.90
20750;DHT22;10535;50.664;4.564;2023-06-14T03:18:54;16.10;99.90
20750;DHT22;10535;50.664;4.564;2023-06-14T03:21:20;16.00;99.90
20750;DHT22;10535;50.664;4.564;2023-06-14T03:23:46;15.90;99.90
20750;DHT22;10535;50.664;4.564;2023-06-14T03:26:12;15.80;99.90
20750;DHT22;10535;50.664;4.564;2023-06-14T03:28:58;15.80;99.90
20750;DHT22;10535;50.664;4.564;2023-06-14T03:31:24;15.70;99.90
20750;DHT22;10535;50.664;4.564;2023-06-14T03:33:49;15.80;99.90
20750;DHT22;10535;50.664;4.564;2023-06-14T03:36:15;15.70;99.90
20750;DHT22;10535;50.664;4.564;2023-06-14T03:38:42;15.80;99.90
20750;DHT22;10535;50.664;4.564;2023-06-14T03:41:07;15.80;99.90
20750;DHT22;10535;50.664;4.564;2023-06-14T03:43:33;15.70;99.90
20750;DHT22;10535;50.664;4.564;2023-06-14T03:46:00;15.70;99.90
20750;DHT22;10535;50.664;4.564;2023-06-14T03:48:25;15.80;99.90
20750;DHT22;10535;50.664;4.564;2023-06-14T03:50:51;15.80;99.90
20750;DHT22;10535;50.664;4.564;2023-06-14T03:53:17;15.80;99.90
20750;DHT22;10535;50.664;4.564;2023-06-14T03:55:45;15.80;99.90
20750;DHT22;10535;50.664;4.564;2023-06-14T03:58:11;15.80;99.90
20750;DHT22;10535;50.664;4.564;2023-06-14T04:00:38;15.80;99.90
20750;DHT22;10535;50.664;4.564;2023-06-14T04:03:04;15.80;99.90
20750;DHT22;10535;50.664;4.564;2023-06-14T04:05:31;15.80;99.90
20750;DHT22;10535;50.664;4.564;2023-06-14T04:07:56;15.90;99.90
20750;DHT22;10535;50.664;4.564;2023-06-14T04:10:22;15.90;99.90
20750;DHT22;10535;50.664;4.564;2023-06-14T04:12:48;15.90;99.90
20750;DHT22;10535;50.664;4.564;2023-06-14T04:15:14;16.00;99.90
20750;DHT22;10535;50.664;4.564;2023-06-14T04:17:40;16.00;99.90
20750;DHT22;10535;50.664;4.564;2023-06-14T04:20:06;16.10;99.90
20750;DHT22;10535;50.664;4.564;2023-06-14T04:22:34;16.20;99.90
20750;DHT22;10535;50.664;4.564;2023-06-14T04:25:01;16.20;99.90
20750;DHT22;10535;50.664;4.564;2023-06-14T04:27:27;16.40;99.90
20750;DHT22;10535;50.664;4.564;2023-06-14T04:29:56;16.50;99.90
20750;DHT22;10535;50.664;4.564;2023-06-14T04:32:49;16.50;99.90
20750;DHT22;10535;50.664;4.564;2023-06-14T04:35:36;16.60;99.90
20750;DHT22;10535;50.664;4.564;2023-06-14T04:38:14;16.70;99.90
20750;DHT22;10535;50.664;4.564;2023-06-14T04:41:12;16.80;99.90
20750;DHT22;10535;50.664;4.564;2023-06-14T04:44:44;16.90;99.90
20750;DHT22;10535;50.664;4.564;2023-06-14T04:48:18;17.20;99.90
20750;DHT22;10535;50.664;4.564;2023-06-14T04:54:55;17.30;99.90
20750;DHT22;10535;50.664;4.564;2023-06-14T04:57:45;17.70;99.90
20750;DHT22;10535;50.664;4.564;2023-06-14T05:00:11;17.90;99.90
20750;DHT22;10535;50.664;4.564;2023-06-14T05:02:37;18.30;99.90
20750;DHT22;10535;50.664;4.564;2023-06-14T05:05:30;18.50;99.90
20750;DHT22;10535;50.664;4.564;2023-06-14T05:08:22;19.00;99.90
20750;DHT22;10535;50.664;4.564;2023-06-14T05:10:55;20.10;99.90
20750;DHT22;10535;50.664;4.564;2023-06-14T05:13:20;20.90;99.90
20750;DHT22;10535;50.664;4.564;2023-06-14T05:15:48;21.50;99.90
20750;DHT22;10535;50.664;4.564;2023-06-14T05:18:14;21.90;99.90
20750;DHT22;10535;50.664;4.564;2023-06-14T05:20:41;22.30;99.90
20750;DHT22;10535;50.664;4.564;2023-06-14T05:23:11;22.80;99.90
20750;DHT22;10535;50.664;4.564;2023-06-14T05:25:44;23.10;99.90
20750;DHT22;10535;50.664;4.564;2023-06-14T05:28:12;23.50;99.90
20750;DHT22;10535;50.664;4.564;2023-06-14T05:30:38;23.30;99.90
20750;DHT22;10535;50.664;4.564;2023-06-14T05:33:05;23.00;99.90
20750;DHT22;10535;50.664;4.564;2023-06-14T05:35:31;23.00;99.90
20750;DHT22;10535;50.664;4.564;2023-06-14T05:37:57;23.60;99.90
20750;DHT22;10535;50.664;4.564;2023-06-14T05:40:24;23.90;99.90
20750;DHT22;10535;50.664;4.564;2023-06-14T05:42:51;23.90;99.90
20750;DHT22;10535;50.664;4.564;2023-06-14T05:45:20;24.40;99.90
20750;DHT22;10535;50.664;4.564;2023-06-14T05:47:53;24.20;99.90
20750;DHT22;10535;50.664;4.564;2023-06-14T05:50:22;24.40;99.90
20750;DHT22;10535;50.664;4.564;2023-06-14T05:52:48;24.10;99.90
20750;DHT22;10535;50.664;4.564;2023-06-14T05:55:25;23.40;99.90
20750;DHT22;10535;50.664;4.564;2023-06-14T05:57:51;22.60;99.90
20750;DHT22;10535;50.664;4.564;2023-06-14T06:00:18;22.40;99.90
20750;DHT22;10535;50.664;4.564;2023-06-14T06:02:46;22.70;99.90
20750;DHT22;10535;50.664;4.564;2023-06-14T06:05:14;22.20;99.90
20750;DHT22;10535;50.664;4.564;2023-06-14T06:07:43;22.20;99.90
20750;DHT22;10535;50.664;4.564;2023-06-14T06:10:11;22.00;99.90
20750;DHT22;10535;50.664;4.564;2023-06-14T06:12:37;21.60;99.90
20750;DHT22;10535;50.664;4.564;2023-06-14T06:15:03;21.80;99.90
20750;DHT22;10535;50.664;4.564;2023-06-14T06:17:29;21.90;99.90
20750;DHT22;10535;50.664;4.564;2023-06-14T06:19:55;22.20;99.90
20750;DHT22;10535;50.664;4.564;2023-06-14T06:22:22;22.40;99.90
20750;DHT22;10535;50.664;4.564;2023-06-14T06:24:50;22.20;99.90
20750;DHT22;10535;50.664;4.564;2023-06-14T06:27:17;22.60;99.90
20750;DHT22;10535;50.664;4.564;2023-06-14T06:29:44;22.60;99.90
20750;DHT22;10535;50.664;4.564;2023-06-14T06:32:10;22.50;99.90
20750;DHT22;10535;50.664;4.564;2023-06-14T06:34:36;23.10;99.90
20750;DHT22;10535;50.664;4.564;2023-06-14T06:37:02;22.90;99.90
20750;DHT22;10535;50.664;4.564;2023-06-14T06:39:28;22.90;99.90
20750;DHT22;10535;50.664;4.564;2023-06-14T06:41:53;22.50;99.90
20750;DHT22;10535;50.664;4.564;2023-06-14T06:44:20;22.20;99.90
20750;DHT22;10535;50.664;4.564;2023-06-14T06:46:46;22.10;99.90
20750;DHT22;10535;50.664;4.564;2023-06-14T06:49:27;22.40;99.90
20750;DHT22;10535;50.664;4.564;2023-06-14T06:52:11;22.10;99.90
20750;DHT22;10535;50.664;4.564;2023-06-14T06:55:00;22.10;99.90
20750;DHT22;10535;50.664;4.564;2023-06-14T06:57:49;22.10;99.90
20750;DHT22;10535;50.664;4.564;2023-06-14T07:00:40;22.30;99.90
20750;DHT22;10535;50.664;4.564;2023-06-14T07:03:07;22.30;99.90
20750;DHT22;10535;50.664;4.564;2023-06-14T07:05:35;22.40;99.90
20750;DHT22;10535;50.664;4.564;2023-06-14T07:08:01;22.80;99.90
20750;DHT22;10535;50.664;4.564;2023-06-14T07:10:26;22.90;99.90
20750;DHT22;10535;50.664;4.564;2023-06-14T07:12:53;23.00;99.90
20750;DHT22;10535;50.664;4.564;2023-06-14T07:15:42;23.40;99.90
20750;DHT22;10535;50.664;4.564;2023-06-14T07:18:14;24.10;99.90
20750;DHT22;10535;50.664;4.564;2023-06-14T07:20:43;24.10;99.90
20750;DHT22;10535;50.664;4.564;2023-06-14T07:23:09;24.60;99.90
20750;DHT22;10535;50.664;4.564;2023-06-14T07:25:40;24.40;99.90
20750;DHT22;10535;50.664;4.564;2023-06-14T07:28:06;24.20;99.90
20750;DHT22;10535;50.664;4.564;2023-06-14T07:30:33;23.80;99.90
20750;DHT22;10535;50.664;4.564;2023-06-14T07:33:00;24.10;99.90
20750;DHT22;10535;50.664;4.564;2023-06-14T07:35:26;24.00;99.90
20750;DHT22;10535;50.664;4.564;2023-06-14T07:37:51;23.90;99.90
20750;DHT22;10535;50.664;4.564;2023-06-14T07:40:43;24.20;99.90
20750;DHT22;10535;50.664;4.564;2023-06-14T07:43:08;24.70;99.90
20750;DHT22;10535;50.664;4.564;2023-06-14T07:46:04;24.90;99.90
20750;DHT22;10535;50.664;4.564;2023-06-14T07:48:45;24.70;99.90
20750;DHT22;10535;50.664;4.564;2023-06-14T07:51:16;24.80;99.90
20750;DHT22;10535;50.664;4.564;2023-06-14T07:53:53;25.20;99.90
20750;DHT22;10535;50.664;4.564;2023-06-14T07:56:18;25.90;99.90
20750;DHT22;10535;50.664;4.564;2023-06-14T07:59:09;25.80;99.90
20750;DHT22;10535;50.664;4.564;2023-06-14T08:02:19;25.60;99.90
20750;DHT22;10535;50.664;4.564;2023-06-14T08:04:45;25.10;99.90
20750;DHT22;10535;50.664;4.564;2023-06-14T08:07:26;25.10;99.90
20750;DHT22;10535;50.664;4.564;2023-06-14T08:09:51;25.20;99.90
20750;DHT22;10535;50.664;4.564;2023-06-14T08:12:20;25.30;99.90
20750;DHT22;10535;50.664;4.564;2023-06-14T08:15:05;25.10;99.90
20750;DHT22;10535;50.664;4.564;2023-06-14T08:17:31;25.30;99.90
20750;DHT22;10535;50.664;4.564;2023-06-14T08:20:21;25.40;99.90
20750;DHT22;10535;50.664;4.564;2023-06-14T08:22:47;25.30;99.90
20750;DHT22;10535;50.664;4.564;2023-06-14T08:25:19;25.40;99.90
20750;DHT22;10535;50.664;4.564;2023-06-14T08:27:48;25.50;99.90
20750;DHT22;10535;50.664;4.564;2023-06-14T08:30:37;25.60;99.90
20750;DHT22;10535;50.664;4.564;2023-06-14T08:33:26;25.30;99.90
20750;DHT22;10535;50.664;4.564;2023-06-14T08:35:59;25.10;99.90
20750;DHT22;10535;50.664;4.564;2023-06-14T08:38:41;25.10;99.90
20750;DHT22;10535;50.664;4.564;2023-06-14T08:41:08;25.20;99.90
20750;DHT22;10535;50.664;4.564;2023-06-14T08:43:39;25.50;99.90
20750;DHT22;10535;50.664;4.564;2023-06-14T08:46:14;26.00;99.90
20750;DHT22;10535;50.664;4.564;2023-06-14T08:49:19;25.50;99.90
20750;DHT22;10535;50.664;4.564;2023-06-14T08:52:08;25.50;99.90
20750;DHT22;10535;50.664;4.564;2023-06-14T08:55:21;25.90;99.90
20750;DHT22;10535;50.664;4.564;2023-06-14T08:58:19;25.70;99.90
20750;DHT22;10535;50.664;4.564;2023-06-14T09:01:22;25.30;99.90
20750;DHT22;10535;50.664;4.564;2023-06-14T09:04:07;24.80;99.90
20750;DHT22;10535;50.664;4.564;2023-06-14T09:06:53;24.80;99.90
20750;DHT22;10535;50.664;4.564;2023-06-14T09:10:14;24.90;99.90
20750;DHT22;10535;50.664;4.564;2023-06-14T09:12:46;24.90;99.90
20750;DHT22;10535;50.664;4.564;2023-06-14T09:16:07;24.80;99.90
20750;DHT22;10535;50.664;4.564;2023-06-14T09:19:06;25.10;99.90
20750;DHT22;10535;50.664;4.564;2023-06-14T09:21:37;25.50;99.90
20750;DHT22;10535;50.664;4.564;2023-06-14T09:24:17;25.80;99.90
20750;DHT22;10535;50.664;4.564;2023-06-14T09:28:00;26.10;99.90
20750;DHT22;10535;50.664;4.564;2023-06-14T09:30:38;26.20;99.90
20750;DHT22;10535;50.664;4.564;2023-06-14T09:33:10;26.20;99.90
20750;DHT22;10535;50.664;4.564;2023-06-14T09:35:36;25.50;99.90
20750;DHT22;10535;50.664;4.564;2023-06-14T09:38:01;25.10;99.90
20750;DHT22;10535;50.664;4.564;2023-06-14T09:40:38;24.70;99.90
20750;DHT22;10535;50.664;4.564;2023-06-14T09:43:17;24.50;99.90
20750;DHT22;10535;50.664;4.564;2023-06-14T09:49:02;25.20;99.90
20750;DHT22;10535;50.664;4.564;2023-06-14T09:51:51;25.70;99.90
20750;DHT22;10535;50.664;4.564;2023-06-14T09:54:22;25.90;99.90
20750;DHT22;10535;50.664;4.564;2023-06-14T09:56:49;26.00;99.90
20750;DHT22;10535;50.664;4.564;2023-06-14T09:59:22;25.80;99.90
20750;DHT22;10535;50.664;4.564;2023-06-14T10:01:59;25.40;99.90
20750;DHT22;10535;50.664;4.564;2023-06-14T10:04:27;25.10;99.90
20750;DHT22;10535;50.664;4.564;2023-06-14T10:06:54;25.10;99.90
20750;DHT22;10535;50.664;4.564;2023-06-14T10:09:20;25.20;99.90
20750;DHT22;10535;50.664;4.564;2023-06-14T10:11:47;25.10;99.90
20750;DHT22;10535;50.664;4.564;2023-06-14T10:14:13;25.30;99.90
20750;DHT22;10535;50.664;4.564;2023-06-14T10:16:54;25.60;99.90
20750;DHT22;10535;50.664;4.564;2023-06-14T10:19:24;26.00;99.90
20750;DHT22;10535;50.664;4.564;2023-06-14T10:21:55;26.50;99.90
20750;DHT22;10535;50.664;4.564;2023-06-14T10:24:34;26.40;99.90
20750;DHT22;10535;50.664;4.564;2023-06-14T10:27:07;26.00;99.90
20750;DHT22;10535;50.664;4.564;2023-06-14T10:35:05;25.20;99.90
20750;DHT22;10535;50.664;4.564;2023-06-14T10:37:33;25.30;99.90
20750;DHT22;10535;50.664;4.564;2023-06-14T10:39:59;25.50;99.90
20750;DHT22;10535;50.664;4.564;2023-06-14T10:42:32;26.00;99.90
20750;DHT22;10535;50.664;4.564;2023-06-14T10:44:58;25.90;99.90
20750;DHT22;10535;50.664;4.564;2023-06-14T10:47:30;25.50;99.90
20750;DHT22;10535;50.664;4.564;2023-06-14T10:50:05;25.70;99.90
20750;DHT22;10535;50.664;4.564;2023-06-14T10:52:34;26.00;99.90
20750;DHT22;10535;50.664;4.564;2023-06-14T10:55:16;25.70;99.90
20750;DHT22;10535;50.664;4.564;2023-06-14T10:57:52;25.50;99.90
20750;DHT22;10535;50.664;4.564;2023-06-14T11:00:24;25.50;99.90
20750;DHT22;10535;50.664;4.564;2023-06-14T11:03:53;25.70;99.90
20750;DHT22;10535;50.664;4.564;2023-06-14T11:05:52;25.40;99.90
20750;DHT22;10535;50.664;4.564;2023-06-14T11:11:10;25.40;99.90
20750;DHT22;10535;50.664;4.564;2023-06-14T11:13:44;25.60;99.90
20750;DHT22;10535;50.664;4.564;2023-06-14T11:16:15;25.80;99.90
20750;DHT22;10535;50.664;4.564;2023-06-14T11:18:47;25.80;99.90
20750;DHT22;10535;50.664;4.564;2023-06-14T11:21:19;26.00;99.90
20750;DHT22;10535;50.664;4.564;2023-06-14T11:23:51;26.00;99.90
20750;DHT22;10535;50.664;4.564;2023-06-14T11:26:30;25.80;99.90
20750;DHT22;10535;50.664;4.564;2023-06-14T11:29:00;25.80;99.90
20750;DHT22;10535;50.664;4.564;2023-06-14T11:31:29;25.60;99.90
20750;DHT22;10535;50.664;4.564;2023-06-14T11:33:56;25.70;99.90
20750;DHT22;10535;50.664;4.564;2023-06-14T11:36:23;26.30;99.90
20750;DHT22;10535;50.664;4.564;2023-06-14T11:39:06;26.70;99.90
20750;DHT22;10535;50.664;4.564;2023-06-14T11:41:38;27.10;99.90
20750;DHT22;10535;50.664;4.564;2023-06-14T11:44:06;27.20;99.90
20750;DHT22;10535;50.664;4.564;2023-06-14T11:46:32;27.20;99.90
20750;DHT22;10535;50.664;4.564;2023-06-14T11:48:58;27.30;99.90
20750;DHT22;10535;50.664;4.564;2023-06-14T11:51:24;27.20;99.90
20750;DHT22;10535;50.664;4.564;2023-06-14T11:53:50;26.60;99.20
20750;DHT22;10535;50.664;4.564;2023-06-14T11:56:17;26.30;99.30
20750;DHT22;10535;50.664;4.564;2023-06-14T11:58:43;26.10;99.40
20750;DHT22;10535;50.664;4.564;2023-06-14T12:01:09;26.00;99.90
20750;DHT22;10535;50.664;4.564;2023-06-14T12:03:34;26.10;99.40
20750;DHT22;10535;50.664;4.564;2023-06-14T12:06:10;26.00;98.90
20750;DHT22;10535;50.664;4.564;2023-06-14T12:08:37;26.10;98.80
20750;DHT22;10535;50.664;4.564;2023-06-14T12:11:13;25.90;99.20
20750;DHT22;10535;50.664;4.564;2023-06-14T12:13:43;25.80;98.90
20750;DHT22;10535;50.664;4.564;2023-06-14T12:16:10;25.50;98.40
20750;DHT22;10535;50.664;4.564;2023-06-14T12:26:24;26.50;97.90
20750;DHT22;10535;50.664;4.564;2023-06-14T12:31:26;26.30;98.20
20750;DHT22;10535;50.664;4.564;2023-06-14T12:33:53;25.80;96.80
20750;DHT22;10535;50.664;4.564;2023-06-14T12:36:25;25.90;98.90
20750;DHT22;10535;50.664;4.564;2023-06-14T12:38:51;26.50;99.10
20750;DHT22;10535;50.664;4.564;2023-06-14T12:41:20;26.60;97.50
20750;DHT22;10535;50.664;4.564;2023-06-14T12:43:51;26.70;97.10
20750;DHT22;10535;50.664;4.564;2023-06-14T12:46:19;26.30;96.60
20750;DHT22;10535;50.664;4.564;2023-06-14T12:48:48;26.10;97.30
20750;DHT22;10535;50.664;4.564;2023-06-14T12:51:14;26.00;97.40
20750;DHT22;10535;50.664;4.564;2023-06-14T12:53:39;26.10;97.60
20750;DHT22;10535;50.664;4.564;2023-06-14T12:56:07;26.40;98.00
20750;DHT22;10535;50.664;4.564;2023-06-14T12:58:32;26.50;96.50
20750;DHT22;10535;50.664;4.564;2023-06-14T13:00:59;26.30;97.00
20750;DHT22;10535;50.664;4.564;2023-06-14T13:03:26;26.20;97.20
20750;DHT22;10535;50.664;4.564;2023-06-14T13:05:52;26.30;98.20
20750;DHT22;10535;50.664;4.564;2023-06-14T13:08:22;26.30;97.30
20750;DHT22;10535;50.664;4.564;2023-06-14T13:10:48;26.00;97.20
20750;DHT22;10535;50.664;4.564;2023-06-14T13:13:14;26.20;97.00
20750;DHT22;10535;50.664;4.564;2023-06-14T13:15:39;26.40;97.40
20750;DHT22;10535;50.664;4.564;2023-06-14T13:18:06;26.30;96.90
20750;DHT22;10535;50.664;4.564;2023-06-14T13:20:31;26.10;97.20
20750;DHT22;10535;50.664;4.564;2023-06-14T13:22:57;26.20;96.80
20750;DHT22;10535;50.664;4.564;2023-06-14T13:25:23;26.60;96.10
20750;DHT22;10535;50.664;4.564;2023-06-14T13:27:49;26.60;96.90
20750;DHT22;10535;50.664;4.564;2023-06-14T13:30:15;26.70;95.90
20750;DHT22;10535;50.664;4.564;2023-06-14T13:32:40;26.70;95.90
20750;DHT22;10535;50.664;4.564;2023-06-14T13:35:06;26.30;95.00
20750;DHT22;10535;50.664;4.564;2023-06-14T13:37:33;26.00;95.10
20750;DHT22;10535;50.664;4.564;2023-06-14T13:39:59;26.10;95.90
20750;DHT22;10535;50.664;4.564;2023-06-14T13:42:24;26.50;95.50
20750;DHT22;10535;50.664;4.564;2023-06-14T13:44:50;26.70;95.50
20750;DHT22;10535;50.664;4.564;2023-06-14T13:47:17;26.60;95.10
20750;DHT22;10535;50.664;4.564;2023-06-14T13:49:44;26.60;94.20
20750;DHT22;10535;50.664;4.564;2023-06-14T13:52:11;26.50;94.40
20750;DHT22;10535;50.664;4.564;2023-06-14T13:54:37;26.90;94.80
20750;DHT22;10535;50.664;4.564;2023-06-14T13:57:03;27.20;94.30
20750;DHT22;10535;50.664;4.564;2023-06-14T13:59:29;27.00;94.60
20750;DHT22;10535;50.664;4.564;2023-06-14T14:01:55;27.00;94.40
20750;DHT22;10535;50.664;4.564;2023-06-14T14:04:20;27.00;92.90
20750;DHT22;10535;50.664;4.564;2023-06-14T14:06:46;26.70;92.70
20750;DHT22;10535;50.664;4.564;2023-06-14T14:09:14;26.60;93.20
20750;DHT22;10535;50.664;4.564;2023-06-14T14:11:43;26.60;92.90
20750;DHT22;10535;50.664;4.564;2023-06-14T14:14:09;26.80;93.30
20750;DHT22;10535;50.664;4.564;2023-06-14T14:16:36;26.90;92.20
20750;DHT22;10535;50.664;4.564;2023-06-14T14:19:03;26.70;92.50
20750;DHT22;10535;50.664;4.564;2023-06-14T14:21:29;26.40;93.00
20750;DHT22;10535;50.664;4.564;2023-06-14T14:23:54;26.40;92.90
20750;DHT22;10535;50.664;4.564;2023-06-14T14:26:21;26.70;91.60
20750;DHT22;10535;50.664;4.564;2023-06-14T14:28:47;27.00;92.60
20750;DHT22;10535;50.664;4.564;2023-06-14T14:31:13;27.00;92.00
20750;DHT22;10535;50.664;4.564;2023-06-14T14:33:38;27.20;92.40
20750;DHT22;10535;50.664;4.564;2023-06-14T14:36:04;27.40;91.80
20750;DHT22;10535;50.664;4.564;2023-06-14T14:38:33;27.50;91.10
20750;DHT22;10535;50.664;4.564;2023-06-14T14:49:13;26.50;90.80
20750;DHT22;10535;50.664;4.564;2023-06-14T14:51:39;26.20;90.50
20750;DHT22;10535;50.664;4.564;2023-06-14T14:54:05;26.00;90.50
20750;DHT22;10535;50.664;4.564;2023-06-14T14:56:32;26.00;90.40
20750;DHT22;10535;50.664;4.564;2023-06-14T14:58:58;26.10;90.80
20750;DHT22;10535;50.664;4.564;2023-06-14T15:01:23;26.00;89.80
20750;DHT22;10535;50.664;4.564;2023-06-14T15:03:49;26.20;90.10
20750;DHT22;10535;50.664;4.564;2023-06-14T15:06:15;26.40;90.30
20750;DHT22;10535;50.664;4.564;2023-06-14T15:08:41;26.20;90.10
20750;DHT22;10535;50.664;4.564;2023-06-14T15:11:06;26.20;90.20
20750;DHT22;10535;50.664;4.564;2023-06-14T15:13:32;26.50;89.60
20750;DHT22;10535;50.664;4.564;2023-06-14T15:15:58;26.30;89.10
20750;DHT22;10535;50.664;4.564;2023-06-14T15:18:27;26.60;90.90
20750;DHT22;10535;50.664;4.564;2023-06-14T15:20:54;26.80;90.10
20750;DHT22;10535;50.664;4.564;2023-06-14T15:23:20;26.90;89.30
20750;DHT22;10535;50.664;4.564;2023-06-14T15:26:06;26.80;89.80
20750;DHT22;10535;50.664;4.564;2023-06-14T15:31:07;26.40;89.10
20750;DHT22;10535;50.664;4.564;2023-06-14T15:33:33;26.30;90.60
20750;DHT22;10535;50.664;4.564;2023-06-14T15:36:00;26.40;91.10
20750;DHT22;10535;50.664;4.564;2023-06-14T15:38:26;26.70;90.40
20750;DHT22;10535;50.664;4.564;2023-06-14T15:40:54;26.60;91.20
20750;DHT22;10535;50.664;4.564;2023-06-14T16:32:29;26.10;92.70
20750;DHT22;10535;50.664;4.564;2023-06-14T16:34:56;26.20;92.00
20750;DHT22;10535;50.664;4.564;2023-06-14T16:37:37;26.20;92.70
20750;DHT22;10535;50.664;4.564;2023-06-14T16:40:09;26.40;92.20
20750;DHT22;10535;50.664;4.564;2023-06-14T16:42:35;26.50;91.80
20750;DHT22;10535;50.664;4.564;2023-06-14T16:45:00;26.20;91.40
20750;DHT22;10535;50.664;4.564;2023-06-14T16:47:26;25.90;91.80
20750;DHT22;10535;50.664;4.564;2023-06-14T16:49:52;25.60;92.10
20750;DHT22;10535;50.664;4.564;2023-06-14T16:52:24;25.50;92.40
20750;DHT22;10535;50.664;4.564;2023-06-14T16:54:50;25.60;92.10
20750;DHT22;10535;50.664;4.564;2023-06-14T16:57:15;25.70;92.20
20750;DHT22;10535;50.664;4.564;2023-06-14T16:59:41;25.50;91.50
20750;DHT22;10535;50.664;4.564;2023-06-14T17:02:07;25.40;92.50
20750;DHT22;10535;50.664;4.564;2023-06-14T17:04:33;25.60;92.50
20750;DHT22;10535;50.664;4.564;2023-06-14T17:06:58;26.00;91.30
20750;DHT22;10535;50.664;4.564;2023-06-14T17:09:24;25.80;92.00
20750;DHT22;10535;50.664;4.564;2023-06-14T17:11:51;25.90;92.10
20750;DHT22;10535;50.664;4.564;2023-06-14T17:14:16;26.00;90.00
20750;DHT22;10535;50.664;4.564;2023-06-14T17:16:42;26.20;89.70
20750;DHT22;10535;50.664;4.564;2023-06-14T17:19:13;26.90;87.90
20750;DHT22;10535;50.664;4.564;2023-06-14T17:21:49;28.20;85.90
20750;DHT22;10535;50.664;4.564;2023-06-14T17:24:18;29.00;85.00